sensor_id;sensor_type;location;lat;lon;timestamp;P1;durP1;ratioP1;P2;durP2;ratioP2
74510;SDS011;62991;50.040;18.400;2023-10-13T00:00:01;16.13;;;8.45;;
74510;SDS011;62991;50.040;18.400;2023-10-13T00:03:21;14.68;;;7.65;;
74510;SDS011;62991;50.040;18.400;2023-10-13T00:06:22;18.98;;;9.10;;
74510;SDS011;62991;50.040;18.400;2023-10-13T00:09:23;16.98;;;8.43;;
74510;SDS011;62991;50.040;18.400;2023-10-13T00:12:25;21.90;;;9.50;;
74510;SDS011;62991;50.040;18.400;2023-10-13T00:15:26;19.00;;;8.05;;
74510;SDS011;62991;50.040;18.400;2023-10-13T00:18:29;18.90;;;8.68;;
74510;SDS011;62991;50.040;18.400;2023-10-13T00:21:34;20.65;;;9.02;;
74510;SDS011;62991;50.040;18.400;2023-10-13T00:24:39;20.17;;;8.88;;
74510;SDS011;62991;50.040;18.400;2023-10-13T00:27:45;17.40;;;7.47;;
74510;SDS011;62991;50.040;18.400;2023-10-13T00:30:52;19.55;;;8.27;;
74510;SDS011;62991;50.040;18.400;2023-10-13T00:34:00;23.20;;;8.90;;
74510;SDS011;62991;50.040;18.400;2023-10-13T00:37:05;24.02;;;10.40;;
74510;SDS011;62991;50.040;18.400;2023-10-13T00:40:27;17.27;;;8.65;;
74510;SDS011;62991;50.040;18.400;2023-10-13T00:43:31;18.77;;;8.60;;
74510;SDS011;62991;50.040;18.400;2023-10-13T00:46:34;20.10;;;9.40;;
74510;SDS011;62991;50.040;18.400;2023-10-13T00:49:38;18.00;;;9.65;;
74510;SDS011;62991;50.040;18.400;2023-10-13T00:52:39;19.40;;;9.10;;
74510;SDS011;62991;50.040;18.400;2023-10-13T00:55:42;22.15;;;9.55;;
74510;SDS011;62991;50.040;18.400;2023-10-13T00:58:44;18.00;;;9.02;;
74510;SDS011;62991;50.040;18.400;2023-10-13T01:01:52;19.98;;;9.55;;
74510;SDS011;62991;50.040;18.400;2023-10-13T01:04:55;19.67;;;9.15;;
74510;SDS011;62991;50.040;18.400;2023-10-13T01:07:59;20.90;;;9.43;;
74510;SDS011;62991;50.040;18.400;2023-10-13T01:11:01;23.20;;;10.05;;
74510;SDS011;62991;50.040;18.400;2023-10-13T01:14:02;18.50;;;9.25;;
74510;SDS011;62991;50.040;18.400;2023-10-13T01:17:04;16.60;;;9.20;;
74510;SDS011;62991;50.040;18.400;2023-10-13T01:20:05;18.95;;;7.85;;
74510;SDS011;62991;50.040;18.400;2023-10-13T01:23:09;17.30;;;8.43;;
74510;SDS011;62991;50.040;18.400;2023-10-13T01:26:18;19.15;;;8.05;;
74510;SDS011;62991;50.040;18.400;2023-10-13T01:29:24;18.90;;;8.43;;
74510;SDS011;62991;50.040;18.400;2023-10-13T01:32:29;13.70;;;6.38;;
74510;SDS011;62991;50.040;18.400;2023-10-13T01:35:29;15.05;;;8.00;;
74510;SDS011;62991;50.040;18.400;2023-10-13T01:38:37;14.98;;;7.22;;
74510;SDS011;62991;50.040;18.400;2023-10-13T01:41:38;17.08;;;8.20;;
74510;SDS011;62991;50.040;18.400;2023-10-13T01:44:39;13.23;;;6.03;;
74510;SDS011;62991;50.040;18.400;2023-10-13T01:47:40;15.88;;;8.07;;
74510;SDS011;62991;50.040;18.400;2023-10-13T01:50:41;18.88;;;7.90;;
74510;SDS011;62991;50.040;18.400;2023-10-13T01:53:42;16.63;;;8.30;;
74510;SDS011;62991;50.040;18.400;2023-10-13T01:56:43;22.13;;;8.00;;
74510;SDS011;62991;50.040;18.400;2023-10-13T01:59:44;18.15;;;8.18;;
74510;SDS011;62991;50.040;18.400;2023-10-13T02:02:48;15.05;;;7.35;;
74510;SDS011;62991;50.040;18.400;2023-10-13T02:05:50;16.88;;;7.45;;
74510;SDS011;62991;50.040;18.400;2023-10-13T02:08:57;20.25;;;7.95;;
74510;SDS011;62991;50.040;18.400;2023-10-13T02:12:05;12.80;;;6.63;;
74510;SDS011;62991;50.040;18.400;2023-10-13T02:15:06;16.55;;;7.00;;
74510;SDS011;62991;50.040;18.400;2023-10-13T02:18:07;15.77;;;6.55;;
74510;SDS011;62991;50.040;18.400;2023-10-13T02:21:09;12.90;;;5.97;;
74510;SDS011;62991;50.040;18.400;2023-10-13T02:24:13;15.10;;;5.93;;
74510;SDS011;62991;50.040;18.400;2023-10-13T02:27:17;10.50;;;5.20;;
74510;SDS011;62991;50.040;18.400;2023-10-13T02:30:22;12.85;;;6.00;;
74510;SDS011;62991;50.040;18.400;2023-10-13T02:33:25;13.85;;;5.45;;
74510;SDS011;62991;50.040;18.400;2023-10-13T02:36:32;7.32;;;4.13;;
74510;SDS011;62991;50.040;18.400;2023-10-13T02:39:54;8.75;;;4.57;;
74510;SDS011;62991;50.040;18.400;2023-10-13T02:42:57;8.65;;;5.13;;
74510;SDS011;62991;50.040;18.400;2023-10-13T02:46:01;7.28;;;4.10;;
74510;SDS011;62991;50.040;18.400;2023-10-13T02:49:03;9.88;;;5.47;;
74510;SDS011;62991;50.040;18.400;2023-10-13T02:52:10;12.85;;;5.70;;
74510;SDS011;62991;50.040;18.400;2023-10-13T02:55:12;8.07;;;4.82;;
74510;SDS011;62991;50.040;18.400;2023-10-13T02:58:16;15.57;;;6.05;;
74510;SDS011;62991;50.040;18.400;2023-10-13T03:01:17;9.07;;;5.13;;
74510;SDS011;62991;50.040;18.400;2023-10-13T03:04:18;13.30;;;5.65;;
74510;SDS011;62991;50.040;18.400;2023-10-13T03:07:26;14.38;;;4.88;;
74510;SDS011;62991;50.040;18.400;2023-10-13T03:10:30;11.02;;;4.88;;
74510;SDS011;62991;50.040;18.400;2023-10-13T03:13:31;10.88;;;4.53;;
74510;SDS011;62991;50.040;18.400;2023-10-13T03:16:34;18.23;;;4.57;;
74510;SDS011;62991;50.040;18.400;2023-10-13T03:19:35;11.95;;;4.85;;
74510;SDS011;62991;50.040;18.400;2023-10-13T03:22:38;11.38;;;3.92;;
74510;SDS011;62991;50.040;18.400;2023-10-13T03:25:39;10.52;;;4.53;;
74510;SDS011;62991;50.040;18.400;2023-10-13T03:28:42;15.15;;;5.97;;
74510;SDS011;62991;50.040;18.400;2023-10-13T03:31:46;17.17;;;6.05;;
74510;SDS011;62991;50.040;18.400;2023-10-13T03:34:55;17.02;;;6.00;;
74510;SDS011;62991;50.040;18.400;2023-10-13T03:38:02;13.57;;;6.43;;
74510;SDS011;62991;50.040;18.400;2023-10-13T03:41:02;15.20;;;5.72;;
74510;SDS011;62991;50.040;18.400;2023-10-13T03:44:23;14.70;;;5.85;;
74510;SDS011;62991;50.040;18.400;2023-10-13T03:47:30;13.50;;;6.10;;
74510;SDS011;62991;50.040;18.400;2023-10-13T03:50:32;10.25;;;4.20;;
74510;SDS011;62991;50.040;18.400;2023-10-13T03:53:36;13.38;;;5.10;;
74510;SDS011;62991;50.040;18.400;2023-10-13T03:56:52;14.77;;;5.22;;
74510;SDS011;62991;50.040;18.400;2023-10-13T03:59:56;9.77;;;4.38;;
74510;SDS011;62991;50.040;18.400;2023-10-13T04:02:57;12.73;;;5.32;;
74510;SDS011;62991;50.040;18.400;2023-10-13T04:06:08;10.40;;;4.78;;
74510;SDS011;62991;50.040;18.400;2023-10-13T04:09:17;10.60;;;4.68;;
74510;SDS011;62991;50.040;18.400;2023-10-13T04:12:31;11.15;;;5.55;;
74510;SDS011;62991;50.040;18.400;2023-10-13T04:16:07;13.80;;;6.32;;
74510;SDS011;62991;50.040;18.400;2023-10-13T04:22:23;7.25;;;4.05;;
74510;SDS011;62991;50.040;18.400;2023-10-13T04:25:44;9.82;;;5.18;;
74510;SDS011;62991;50.040;18.400;2023-10-13T04:28:45;14.05;;;5.68;;
74510;SDS011;62991;50.040;18.400;2023-10-13T04:31:55;10.73;;;5.03;;
74510;SDS011;62991;50.040;18.400;2023-10-13T04:35:00;14.57;;;6.43;;
74510;SDS011;62991;50.040;18.400;2023-10-13T04:38:10;15.88;;;7.25;;
74510;SDS011;62991;50.040;18.400;2023-10-13T04:41:19;20.05;;;7.10;;
74510;SDS011;62991;50.040;18.400;2023-10-13T04:44:23;19.50;;;7.82;;
74510;SDS011;62991;50.040;18.400;2023-10-13T04:47:43;14.63;;;6.15;;
74510;SDS011;62991;50.040;18.400;2023-10-13T04:51:00;17.58;;;6.68;;
74510;SDS011;62991;50.040;18.400;2023-10-13T04:54:21;10.45;;;5.82;;
74510;SDS011;62991;50.040;18.400;2023-10-13T04:57:34;10.35;;;5.65;;
74510;SDS011;62991;50.040;18.400;2023-10-13T05:00:46;15.55;;;5.95;;
74510;SDS011;62991;50.040;18.400;2023-10-13T05:04:16;12.95;;;6.35;;
74510;SDS011;62991;50.040;18.400;2023-10-13T05:07:43;11.25;;;6.22;;
74510;SDS011;62991;50.040;18.400;2023-10-13T05:11:04;13.73;;;5.88;;
74510;SDS011;62991;50.040;18.400;2023-10-13T05:14:24;12.35;;;6.35;;
74510;SDS011;62991;50.040;18.400;2023-10-13T05:17:43;15.10;;;6.95;;
74510;SDS011;62991;50.040;18.400;2023-10-13T05:21:04;19.98;;;9.18;;
74510;SDS011;62991;50.040;18.400;2023-10-13T05:24:23;17.98;;;9.25;;
74510;SDS011;62991;50.040;18.400;2023-10-13T05:27:42;15.15;;;8.73;;
74510;SDS011;62991;50.040;18.400;2023-10-13T05:31:02;18.35;;;7.20;;
74510;SDS011;62991;50.040;18.400;2023-10-13T05:34:21;16.20;;;6.78;;
74510;SDS011;62991;50.040;18.400;2023-10-13T05:37:40;20.30;;;8.13;;
74510;SDS011;62991;50.040;18.400;2023-10-13T05:41:01;16.05;;;7.82;;
74510;SDS011;62991;50.040;18.400;2023-10-13T05:44:21;27.50;;;7.95;;
74510;SDS011;62991;50.040;18.400;2023-10-13T05:47:37;19.08;;;6.93;;
74510;SDS011;62991;50.040;18.400;2023-10-13T05:50:43;14.60;;;6.00;;
74510;SDS011;62991;50.040;18.400;2023-10-13T05:54:10;15.95;;;6.72;;
74510;SDS011;62991;50.040;18.400;2023-10-13T05:57:14;9.05;;;5.57;;
74510;SDS011;62991;50.040;18.400;2023-10-13T06:00:37;12.07;;;6.43;;
74510;SDS011;62991;50.040;18.400;2023-10-13T06:03:57;14.02;;;5.88;;
74510;SDS011;62991;50.040;18.400;2023-10-13T06:07:16;13.10;;;6.47;;
74510;SDS011;62991;50.040;18.400;2023-10-13T06:10:36;13.18;;;5.40;;
74510;SDS011;62991;50.040;18.400;2023-10-13T06:13:56;14.40;;;6.05;;
74510;SDS011;62991;50.040;18.400;2023-10-13T06:17:15;11.32;;;5.95;;
74510;SDS011;62991;50.040;18.400;2023-10-13T06:20:38;13.02;;;6.93;;
74510;SDS011;62991;50.040;18.400;2023-10-13T06:23:58;11.77;;;6.18;;
74510;SDS011;62991;50.040;18.400;2023-10-13T06:27:17;16.13;;;6.70;;
74510;SDS011;62991;50.040;18.400;2023-10-13T06:30:36;11.73;;;5.70;;
74510;SDS011;62991;50.040;18.400;2023-10-13T06:33:38;14.82;;;5.70;;
74510;SDS011;62991;50.040;18.400;2023-10-13T06:36:45;16.45;;;5.95;;
74510;SDS011;62991;50.040;18.400;2023-10-13T06:39:47;13.45;;;6.03;;
74510;SDS011;62991;50.040;18.400;2023-10-13T06:42:57;13.85;;;7.53;;
74510;SDS011;62991;50.040;18.400;2023-10-13T06:46:16;18.92;;;8.30;;
74510;SDS011;62991;50.040;18.400;2023-10-13T06:49:23;12.85;;;6.10;;
74510;SDS011;62991;50.040;18.400;2023-10-13T06:52:24;14.50;;;7.47;;
74510;SDS011;62991;50.040;18.400;2023-10-13T06:55:29;19.67;;;9.45;;
74510;SDS011;62991;50.040;18.400;2023-10-13T06:58:35;18.05;;;10.43;;
74510;SDS011;62991;50.040;18.400;2023-10-13T07:01:35;19.90;;;9.05;;
74510;SDS011;62991;50.040;18.400;2023-10-13T07:04:40;13.02;;;6.40;;
74510;SDS011;62991;50.040;18.400;2023-10-13T07:07:40;15.88;;;6.80;;
74510;SDS011;62991;50.040;18.400;2023-10-13T07:10:51;13.07;;;7.00;;
74510;SDS011;62991;50.040;18.400;2023-10-13T07:14:02;13.65;;;7.05;;
74510;SDS011;62991;50.040;18.400;2023-10-13T07:17:16;18.02;;;7.38;;
74510;SDS011;62991;50.040;18.400;2023-10-13T07:20:27;16.23;;;7.90;;
74510;SDS011;62991;50.040;18.400;2023-10-13T07:23:28;22.90;;;8.32;;
74510;SDS011;62991;50.040;18.400;2023-10-13T07:26:30;12.48;;;5.82;;
74510;SDS011;62991;50.040;18.400;2023-10-13T07:29:30;12.32;;;6.78;;
74510;SDS011;62991;50.040;18.400;2023-10-13T07:32:34;11.55;;;6.20;;
74510;SDS011;62991;50.040;18.400;2023-10-13T07:35:34;13.35;;;5.80;;
74510;SDS011;62991;50.040;18.400;2023-10-13T07:38:37;11.95;;;6.78;;
74510;SDS011;62991;50.040;18.400;2023-10-13T07:41:38;11.02;;;4.50;;
74510;SDS011;62991;50.040;18.400;2023-10-13T07:44:41;6.82;;;3.65;;
74510;SDS011;62991;50.040;18.400;2023-10-13T07:47:48;9.05;;;4.13;;
74510;SDS011;62991;50.040;18.400;2023-10-13T07:51:00;11.77;;;4.15;;
74510;SDS011;62991;50.040;18.400;2023-10-13T07:54:15;10.00;;;4.25;;
74510;SDS011;62991;50.040;18.400;2023-10-13T07:57:21;9.23;;;4.25;;
74510;SDS011;62991;50.040;18.400;2023-10-13T08:00:29;9.75;;;3.92;;
74510;SDS011;62991;50.040;18.400;2023-10-13T08:03:47;7.32;;;3.35;;
74510;SDS011;62991;50.040;18.400;2023-10-13T08:06:57;7.40;;;3.38;;
74510;SDS011;62991;50.040;18.400;2023-10-13T08:10:11;11.10;;;3.83;;
74510;SDS011;62991;50.040;18.400;2023-10-13T08:13:13;8.75;;;3.70;;
74510;SDS011;62991;50.040;18.400;2023-10-13T08:16:13;7.55;;;3.85;;
74510;SDS011;62991;50.040;18.400;2023-10-13T08:19:24;9.68;;;4.22;;
74510;SDS011;62991;50.040;18.400;2023-10-13T08:22:39;6.75;;;3.17;;
74510;SDS011;62991;50.040;18.400;2023-10-13T08:25:46;6.07;;;3.00;;
74510;SDS011;62991;50.040;18.400;2023-10-13T08:29:19;9.70;;;4.05;;
74510;SDS011;62991;50.040;18.400;2023-10-13T08:35:27;11.52;;;4.38;;
74510;SDS011;62991;50.040;18.400;2023-10-13T08:38:34;8.30;;;4.47;;
74510;SDS011;62991;50.040;18.400;2023-10-13T08:41:50;6.85;;;4.20;;
74510;SDS011;62991;50.040;18.400;2023-10-13T08:45:12;20.00;;;5.72;;
74510;SDS011;62991;50.040;18.400;2023-10-13T08:48:23;15.40;;;5.00;;
74510;SDS011;62991;50.040;18.400;2023-10-13T08:51:33;11.35;;;5.05;;
74510;SDS011;62991;50.040;18.400;2023-10-13T08:54:44;12.32;;;5.00;;
74510;SDS011;62991;50.040;18.400;2023-10-13T08:58:02;9.77;;;4.40;;
74510;SDS011;62991;50.040;18.400;2023-10-13T09:01:13;11.30;;;5.22;;
74510;SDS011;62991;50.040;18.400;2023-10-13T09:04:34;11.48;;;5.07;;
74510;SDS011;62991;50.040;18.400;2023-10-13T09:07:44;16.55;;;5.28;;
74510;SDS011;62991;50.040;18.400;2023-10-13T09:10:47;8.00;;;3.65;;
74510;SDS011;62991;50.040;18.400;2023-10-13T09:14:12;6.40;;;3.30;;
74510;SDS011;62991;50.040;18.400;2023-10-13T09:17:40;14.15;;;4.00;;
74510;SDS011;62991;50.040;18.400;2023-10-13T09:21:07;10.45;;;4.82;;
74510;SDS011;62991;50.040;18.400;2023-10-13T09:24:28;10.13;;;4.72;;
74510;SDS011;62991;50.040;18.400;2023-10-13T09:27:32;9.27;;;3.10;;
74510;SDS011;62991;50.040;18.400;2023-10-13T09:36:50;9.35;;;4.35;;
74510;SDS011;62991;50.040;18.400;2023-10-13T09:39:55;6.82;;;3.60;;
74510;SDS011;62991;50.040;18.400;2023-10-13T09:43:17;10.27;;;3.78;;
74510;SDS011;62991;50.040;18.400;2023-10-13T09:46:21;9.40;;;4.10;;
74510;SDS011;62991;50.040;18.400;2023-10-13T09:49:27;7.05;;;3.75;;
74510;SDS011;62991;50.040;18.400;2023-10-13T09:52:45;7.65;;;3.05;;
74510;SDS011;62991;50.040;18.400;2023-10-13T09:59:19;6.90;;;3.63;;
74510;SDS011;62991;50.040;18.400;2023-10-13T10:02:24;12.77;;;4.80;;
74510;SDS011;62991;50.040;18.400;2023-10-13T10:05:25;10.00;;;3.35;;
74510;SDS011;62991;50.040;18.400;2023-10-13T10:08:26;7.75;;;3.70;;
74510;SDS011;62991;50.040;18.400;2023-10-13T10:18:30;9.93;;;3.92;;
74510;SDS011;62991;50.040;18.400;2023-10-13T10:21:37;9.80;;;4.70;;
74510;SDS011;62991;50.040;18.400;2023-10-13T10:24:41;7.18;;;3.85;;
74510;SDS011;62991;50.040;18.400;2023-10-13T10:27:42;8.40;;;3.97;;
74510;SDS011;62991;50.040;18.400;2023-10-13T10:30:43;6.85;;;3.72;;
74510;SDS011;62991;50.040;18.400;2023-10-13T10:33:43;9.65;;;4.10;;
74510;SDS011;62991;50.040;18.400;2023-10-13T10:36:46;7.55;;;3.28;;
74510;SDS011;62991;50.040;18.400;2023-10-13T10:39:48;6.15;;;3.58;;
74510;SDS011;62991;50.040;18.400;2023-10-13T10:42:50;9.80;;;2.75;;
74510;SDS011;62991;50.040;18.400;2023-10-13T10:45:52;8.07;;;3.03;;
74510;SDS011;62991;50.040;18.400;2023-10-13T10:49:03;7.10;;;2.95;;
74510;SDS011;62991;50.040;18.400;2023-10-13T10:52:05;6.18;;;2.58;;
74510;SDS011;62991;50.040;18.400;2023-10-13T10:55:21;6.25;;;2.95;;
74510;SDS011;62991;50.040;18.400;2023-10-13T10:58:25;6.22;;;3.08;;
74510;SDS011;62991;50.040;18.400;2023-10-13T11:01:44;9.10;;;3.22;;
74510;SDS011;62991;50.040;18.400;2023-10-13T11:04:51;4.80;;;2.58;;
74510;SDS011;62991;50.040;18.400;2023-10-13T11:07:51;6.65;;;3.20;;
74510;SDS011;62991;50.040;18.400;2023-10-13T11:10:52;6.32;;;3.10;;
74510;SDS011;62991;50.040;18.400;2023-10-13T11:13:53;12.48;;;2.53;;
74510;SDS011;62991;50.040;18.400;2023-10-13T11:16:55;4.57;;;3.00;;
74510;SDS011;62991;50.040;18.400;2023-10-13T11:20:07;11.27;;;4.88;;
74510;SDS011;62991;50.040;18.400;2023-10-13T11:23:16;6.82;;;3.20;;
74510;SDS011;62991;50.040;18.400;2023-10-13T11:26:16;5.97;;;2.70;;
74510;SDS011;62991;50.040;18.400;2023-10-13T11:29:18;21.38;;;7.50;;
74510;SDS011;62991;50.040;18.400;2023-10-13T11:32:19;9.57;;;3.45;;
74510;SDS011;62991;50.040;18.400;2023-10-13T11:35:20;7.85;;;3.33;;
74510;SDS011;62991;50.040;18.400;2023-10-13T11:38:22;20.13;;;7.28;;
74510;SDS011;62991;50.040;18.400;2023-10-13T11:41:27;10.60;;;3.85;;
74510;SDS011;62991;50.040;18.400;2023-10-13T11:44:34;7.05;;;3.55;;
74510;SDS011;62991;50.040;18.400;2023-10-13T11:47:43;8.20;;;3.72;;
74510;SDS011;62991;50.040;18.400;2023-10-13T11:51:00;13.55;;;4.05;;
74510;SDS011;62991;50.040;18.400;2023-10-13T11:54:02;6.70;;;3.33;;
74510;SDS011;62991;50.040;18.400;2023-10-13T11:57:02;13.15;;;4.43;;
74510;SDS011;62991;50.040;18.400;2023-10-13T12:00:03;6.88;;;3.45;;
74510;SDS011;62991;50.040;18.400;2023-10-13T12:03:36;13.23;;;4.45;;
74510;SDS011;62991;50.040;18.400;2023-10-13T12:06:56;6.15;;;2.65;;
74510;SDS011;62991;50.040;18.400;2023-10-13T12:10:14;5.82;;;2.70;;
74510;SDS011;62991;50.040;18.400;2023-10-13T12:13:16;5.65;;;2.72;;
74510;SDS011;62991;50.040;18.400;2023-10-13T12:16:17;3.70;;;2.03;;
74510;SDS011;62991;50.040;18.400;2023-10-13T12:19:19;4.28;;;2.30;;
74510;SDS011;62991;50.040;18.400;2023-10-13T12:22:23;5.32;;;2.45;;
74510;SDS011;62991;50.040;18.400;2023-10-13T12:25:28;5.70;;;2.45;;
74510;SDS011;62991;50.040;18.400;2023-10-13T12:28:31;6.70;;;2.88;;
74510;SDS011;62991;50.040;18.400;2023-10-13T12:31:37;5.43;;;2.53;;
74510;SDS011;62991;50.040;18.400;2023-10-13T12:34:39;3.85;;;2.13;;
74510;SDS011;62991;50.040;18.400;2023-10-13T12:37:57;10.90;;;4.32;;
74510;SDS011;62991;50.040;18.400;2023-10-13T12:41:17;17.30;;;5.53;;
74510;SDS011;62991;50.040;18.400;2023-10-13T12:44:37;4.68;;;2.50;;
74510;SDS011;62991;50.040;18.400;2023-10-13T12:47:56;4.07;;;2.55;;
74510;SDS011;62991;50.040;18.400;2023-10-13T12:51:16;5.25;;;2.72;;
74510;SDS011;62991;50.040;18.400;2023-10-13T12:54:30;5.38;;;2.80;;
74510;SDS011;62991;50.040;18.400;2023-10-13T12:57:36;8.82;;;3.55;;
74510;SDS011;62991;50.040;18.400;2023-10-13T13:00:43;11.27;;;4.72;;
74510;SDS011;62991;50.040;18.400;2023-10-13T13:03:49;16.02;;;6.47;;
74510;SDS011;62991;50.040;18.400;2023-10-13T13:06:50;12.38;;;3.28;;
74510;SDS011;62991;50.040;18.400;2023-10-13T13:09:50;7.95;;;3.25;;
74510;SDS011;62991;50.040;18.400;2023-10-13T13:12:56;5.38;;;3.00;;
74510;SDS011;62991;50.040;18.400;2023-10-13T13:15:57;7.43;;;3.05;;
74510;SDS011;62991;50.040;18.400;2023-10-13T13:18:58;8.75;;;3.20;;
74510;SDS011;62991;50.040;18.400;2023-10-13T13:21:58;5.78;;;2.85;;
74510;SDS011;62991;50.040;18.400;2023-10-13T13:24:59;7.40;;;2.97;;
74510;SDS011;62991;50.040;18.400;2023-10-13T13:28:00;6.82;;;3.17;;
74510;SDS011;62991;50.040;18.400;2023-10-13T13:31:05;6.82;;;2.55;;
74510;SDS011;62991;50.040;18.400;2023-10-13T13:34:08;10.60;;;3.35;;
74510;SDS011;62991;50.040;18.400;2023-10-13T13:37:12;6.35;;;3.40;;
74510;SDS011;62991;50.040;18.400;2023-10-13T13:40:13;8.23;;;3.03;;
74510;SDS011;62991;50.040;18.400;2023-10-13T13:43:15;8.93;;;4.07;;
74510;SDS011;62991;50.040;18.400;2023-10-13T13:46:31;8.27;;;3.25;;
74510;SDS011;62991;50.040;18.400;2023-10-13T13:49:41;7.03;;;3.10;;
74510;SDS011;62991;50.040;18.400;2023-10-13T13:52:46;8.70;;;3.67;;
74510;SDS011;62991;50.040;18.400;2023-10-13T13:55:47;7.50;;;2.95;;
74510;SDS011;62991;50.040;18.400;2023-10-13T13:58:52;6.30;;;2.97;;
74510;SDS011;62991;50.040;18.400;2023-10-13T14:01:53;8.98;;;2.78;;
74510;SDS011;62991;50.040;18.400;2023-10-13T14:04:59;8.93;;;3.20;;
74510;SDS011;62991;50.040;18.400;2023-10-13T14:08:02;6.97;;;3.00;;
74510;SDS011;62991;50.040;18.400;2023-10-13T14:11:11;6.50;;;3.60;;
74510;SDS011;62991;50.040;18.400;2023-10-13T14:14:13;10.68;;;3.80;;
74510;SDS011;62991;50.040;18.400;2023-10-13T14:17:35;9.07;;;3.65;;
74510;SDS011;62991;50.040;18.400;2023-10-13T14:20:35;11.57;;;4.28;;
74510;SDS011;62991;50.040;18.400;2023-10-13T14:23:39;7.93;;;4.20;;
74510;SDS011;62991;50.040;18.400;2023-10-13T14:26:40;13.63;;;4.50;;
74510;SDS011;62991;50.040;18.400;2023-10-13T14:29:43;10.52;;;5.15;;
74510;SDS011;62991;50.040;18.400;2023-10-13T14:32:43;10.65;;;4.47;;
74510;SDS011;62991;50.040;18.400;2023-10-13T14:35:44;12.15;;;5.03;;
74510;SDS011;62991;50.040;18.400;2023-10-13T14:38:47;12.35;;;5.28;;
74510;SDS011;62991;50.040;18.400;2023-10-13T14:41:50;11.48;;;4.25;;
74510;SDS011;62991;50.040;18.400;2023-10-13T14:44:51;8.88;;;5.28;;
74510;SDS011;62991;50.040;18.400;2023-10-13T14:47:58;8.50;;;3.78;;
74510;SDS011;62991;50.040;18.400;2023-10-13T14:50:58;8.27;;;4.60;;
74510;SDS011;62991;50.040;18.400;2023-10-13T14:54:08;10.73;;;3.65;;
74510;SDS011;62991;50.040;18.400;2023-10-13T14:57:08;7.22;;;3.47;;
74510;SDS011;62991;50.040;18.400;2023-10-13T15:00:09;12.27;;;4.47;;
74510;SDS011;62991;50.040;18.400;2023-10-13T15:03:13;13.50;;;5.10;;
74510;SDS011;62991;50.040;18.400;2023-10-13T15:06:17;9.77;;;4.05;;
74510;SDS011;62991;50.040;18.400;2023-10-13T15:09:20;10.63;;;4.22;;
74510;SDS011;62991;50.040;18.400;2023-10-13T15:12:23;11.55;;;4.43;;
74510;SDS011;62991;50.040;18.400;2023-10-13T15:15:25;10.65;;;4.15;;
74510;SDS011;62991;50.040;18.400;2023-10-13T15:18:26;11.52;;;4.93;;
74510;SDS011;62991;50.040;18.400;2023-10-13T15:21:27;11.68;;;5.18;;
74510;SDS011;62991;50.040;18.400;2023-10-13T15:24:34;9.35;;;5.03;;
74510;SDS011;62991;50.040;18.400;2023-10-13T15:27:45;14.30;;;4.93;;
74510;SDS011;62991;50.040;18.400;2023-10-13T15:30:50;11.00;;;5.47;;
74510;SDS011;62991;50.040;18.400;2023-10-13T15:34:12;11.13;;;4.75;;
74510;SDS011;62991;50.040;18.400;2023-10-13T15:37:13;7.75;;;3.95;;
74510;SDS011;62991;50.040;18.400;2023-10-13T15:40:18;18.15;;;8.30;;
74510;SDS011;62991;50.040;18.400;2023-10-13T15:43:19;35.47;;;14.10;;
74510;SDS011;62991;50.040;18.400;2023-10-13T15:46:20;40.95;;;15.30;;
74510;SDS011;62991;50.040;18.400;2023-10-13T15:49:22;26.83;;;12.27;;
74510;SDS011;62991;50.040;18.400;2023-10-13T15:52:23;18.05;;;8.27;;
74510;SDS011;62991;50.040;18.400;2023-10-13T15:55:25;13.68;;;5.95;;
74510;SDS011;62991;50.040;18.400;2023-10-13T15:58:26;17.88;;;6.57;;
74510;SDS011;62991;50.040;18.400;2023-10-13T16:01:27;28.20;;;12.82;;
74510;SDS011;62991;50.040;18.400;2023-10-13T16:04:28;28.88;;;12.90;;
74510;SDS011;62991;50.040;18.400;2023-10-13T16:07:29;19.08;;;8.80;;
74510;SDS011;62991;50.040;18.400;2023-10-13T16:10:30;16.88;;;6.50;;
74510;SDS011;62991;50.040;18.400;2023-10-13T16:13:30;12.57;;;5.22;;
74510;SDS011;62991;50.040;18.400;2023-10-13T16:16:31;14.98;;;6.95;;
74510;SDS011;62991;50.040;18.400;2023-10-13T16:19:32;14.18;;;5.03;;
74510;SDS011;62991;50.040;18.400;2023-10-13T16:22:34;13.50;;;4.82;;
74510;SDS011;62991;50.040;18.400;2023-10-13T16:25:35;9.45;;;3.40;;
74510;SDS011;62991;50.040;18.400;2023-10-13T16:28:35;14.70;;;8.13;;
74510;SDS011;62991;50.040;18.400;2023-10-13T16:31:36;29.77;;;11.95;;
74510;SDS011;62991;50.040;18.400;2023-10-13T16:34:37;21.40;;;8.98;;
74510;SDS011;62991;50.040;18.400;2023-10-13T16:37:38;18.30;;;7.25;;
74510;SDS011;62991;50.040;18.400;2023-10-13T16:40:39;9.90;;;4.78;;
74510;SDS011;62991;50.040;18.400;2023-10-13T16:43:40;17.05;;;6.28;;
74510;SDS011;62991;50.040;18.400;2023-10-13T16:46:42;10.85;;;4.47;;
74510;SDS011;62991;50.040;18.400;2023-10-13T16:49:43;10.63;;;4.35;;
74510;SDS011;62991;50.040;18.400;2023-10-13T16:52:44;10.05;;;4.88;;
74510;SDS011;62991;50.040;18.400;2023-10-13T16:55:46;9.18;;;4.15;;
74510;SDS011;62991;50.040;18.400;2023-10-13T16:58:47;9.93;;;3.78;;
74510;SDS011;62991;50.040;18.400;2023-10-13T17:01:48;12.27;;;5.25;;
74510;SDS011;62991;50.040;18.400;2023-10-13T17:04:48;14.90;;;5.57;;
74510;SDS011;62991;50.040;18.400;2023-10-13T17:07:49;12.52;;;5.78;;
74510;SDS011;62991;50.040;18.400;2023-10-13T17:10:51;9.77;;;4.63;;
74510;SDS011;62991;50.040;18.400;2023-10-13T17:13:52;8.15;;;4.30;;
74510;SDS011;62991;50.040;18.400;2023-10-13T17:16:53;9.77;;;4.65;;
74510;SDS011;62991;50.040;18.400;2023-10-13T17:19:53;11.07;;;4.18;;
74510;SDS011;62991;50.040;18.400;2023-10-13T17:22:54;11.20;;;4.35;;
74510;SDS011;62991;50.040;18.400;2023-10-13T17:25:56;15.75;;;4.47;;
74510;SDS011;62991;50.040;18.400;2023-10-13T17:28:56;10.88;;;5.07;;
74510;SDS011;62991;50.040;18.400;2023-10-13T17:32:02;11.00;;;5.28;;
74510;SDS011;62991;50.040;18.400;2023-10-13T17:35:04;15.65;;;6.07;;
74510;SDS011;62991;50.040;18.400;2023-10-13T17:38:11;17.98;;;5.38;;
74510;SDS011;62991;50.040;18.400;2023-10-13T17:41:12;12.05;;;4.82;;
74510;SDS011;62991;50.040;18.400;2023-10-13T17:44:14;16.38;;;5.20;;
74510;SDS011;62991;50.040;18.400;2023-10-13T17:47:14;10.00;;;4.55;;
74510;SDS011;62991;50.040;18.400;2023-10-13T17:50:15;17.90;;;6.20;;
74510;SDS011;62991;50.040;18.400;2023-10-13T17:53:16;13.73;;;6.75;;
74510;SDS011;62991;50.040;18.400;2023-10-13T17:56:17;22.70;;;8.55;;
74510;SDS011;62991;50.040;18.400;2023-10-13T17:59:19;11.63;;;5.30;;
74510;SDS011;62991;50.040;18.400;2023-10-13T18:02:20;15.32;;;6.05;;
74510;SDS011;62991;50.040;18.400;2023-10-13T18:05:21;18.00;;;9.02;;
74510;SDS011;62991;50.040;18.400;2023-10-13T18:08:21;24.25;;;9.40;;
74510;SDS011;62991;50.040;18.400;2023-10-13T18:11:23;31.92;;;13.73;;
74510;SDS011;62991;50.040;18.400;2023-10-13T18:14:28;30.45;;;11.20;;
74510;SDS011;62991;50.040;18.400;2023-10-13T18:17:29;26.85;;;10.50;;
74510;SDS011;62991;50.040;18.400;2023-10-13T18:20:32;33.35;;;12.43;;
74510;SDS011;62991;50.040;18.400;2023-10-13T18:23:32;19.65;;;8.63;;
74510;SDS011;62991;50.040;18.400;2023-10-13T18:26:36;18.98;;;8.60;;
74510;SDS011;62991;50.040;18.400;2023-10-13T18:29:37;23.45;;;9.20;;
74510;SDS011;62991;50.040;18.400;2023-10-13T18:32:42;19.23;;;8.95;;
74510;SDS011;62991;50.040;18.400;2023-10-13T18:35:43;23.25;;;9.00;;
74510;SDS011;62991;50.040;18.400;2023-10-13T18:38:46;22.35;;;7.22;;